sensor_id;sensor_type;location;lat;lon;timestamp;temperature;humidity
37285;DHT22;23172;53.550;9.964;2022-07-06T00:02:03;22.40;51.60
37285;DHT22;23172;53.550;9.964;2022-07-06T00:07:05;22.40;51.80
37285;DHT22;23172;53.550;9.964;2022-07-06T00:12:08;22.30;51.90
37285;DHT22;23172;53.550;9.964;2022-07-06T00:17:11;22.30;51.90
37285;DHT22;23172;53.550;9.964;2022-07-06T00:22:13;22.30;52.10
37285;DHT22;23172;53.550;9.964;2022-07-06T00:27:15;22.30;52.20
37285;DHT22;23172;53.550;9.964;2022-07-06T00:32:18;22.30;52.30
37285;DHT22;23172;53.550;9.964;2022-07-06T00:37:20;22.30;52.30
37285;DHT22;23172;53.550;9.964;2022-07-06T00:42:21;22.30;52.30
37285;DHT22;23172;53.550;9.964;2022-07-06T00:47:26;22.30;53.00
37285;DHT22;23172;53.550;9.964;2022-07-06T00:52:28;22.30;52.40
37285;DHT22;23172;53.550;9.964;2022-07-06T00:57:30;22.30;52.50
37285;DHT22;23172;53.550;9.964;2022-07-06T01:02:34;22.20;52.40
37285;DHT22;23172;53.550;9.964;2022-07-06T01:07:37;22.30;52.50
37285;DHT22;23172;53.550;9.964;2022-07-06T01:12:41;22.30;52.50
37285;DHT22;23172;53.550;9.964;2022-07-06T01:17:44;22.20;52.60
37285;DHT22;23172;53.550;9.964;2022-07-06T01:22:49;22.20;52.60
37285;DHT22;23172;53.550;9.964;2022-07-06T01:27:53;22.20;52.80
37285;DHT22;23172;53.550;9.964;2022-07-06T01:32:55;22.10;52.90
37285;DHT22;23172;53.550;9.964;2022-07-06T01:37:58;22.10;53.50
37285;DHT22;23172;53.550;9.964;2022-07-06T01:43:00;22.10;52.90
37285;DHT22;23172;53.550;9.964;2022-07-06T01:48:05;22.10;52.90
37285;DHT22;23172;53.550;9.964;2022-07-06T01:53:08;22.00;52.90
37285;DHT22;23172;53.550;9.964;2022-07-06T01:58:11;22.00;52.90
37285;DHT22;23172;53.550;9.964;2022-07-06T02:03:13;22.00;52.90
37285;DHT22;23172;53.550;9.964;2022-07-06T02:08:16;22.00;52.90
37285;DHT22;23172;53.550;9.964;2022-07-06T02:13:18;22.00;52.90
37285;DHT22;23172;53.550;9.964;2022-07-06T02:18:20;22.00;53.10
37285;DHT22;23172;53.550;9.964;2022-07-06T02:23:23;22.00;53.10
37285;DHT22;23172;53.550;9.964;2022-07-06T02:28:26;22.00;53.70
37285;DHT22;23172;53.550;9.964;2022-07-06T02:33:28;22.00;53.10
37285;DHT22;23172;53.550;9.964;2022-07-06T02:38:31;21.90;53.10
37285;DHT22;23172;53.550;9.964;2022-07-06T02:43:33;21.90;53.10
37285;DHT22;23172;53.550;9.964;2022-07-06T02:48:35;21.90;53.20
37285;DHT22;23172;53.550;9.964;2022-07-06T02:53:39;21.80;53.40
37285;DHT22;23172;53.550;9.964;2022-07-06T02:58:41;21.80;53.40
37285;DHT22;23172;53.550;9.964;2022-07-06T03:03:43;21.80;53.20
37285;DHT22;23172;53.550;9.964;2022-07-06T03:08:46;21.80;53.20
37285;DHT22;23172;53.550;9.964;2022-07-06T03:13:48;21.80;53.30
37285;DHT22;23172;53.550;9.964;2022-07-06T03:18:49;21.80;53.60
37285;DHT22;23172;53.550;9.964;2022-07-06T03:23:53;21.80;53.80
37285;DHT22;23172;53.550;9.964;2022-07-06T03:28:54;21.80;54.10
37285;DHT22;23172;53.550;9.964;2022-07-06T03:33:56;21.80;54.30
37285;DHT22;23172;53.550;9.964;2022-07-06T03:38:59;21.80;54.40
37285;DHT22;23172;53.550;9.964;2022-07-06T03:44:01;21.80;54.40
37285;DHT22;23172;53.550;9.964;2022-07-06T03:49:03;21.70;54.60
37285;DHT22;23172;53.550;9.964;2022-07-06T03:54:06;21.60;54.60
37285;DHT22;23172;53.550;9.964;2022-07-06T03:59:08;21.60;54.60
37285;DHT22;23172;53.550;9.964;2022-07-06T04:04:10;21.60;54.50
37285;DHT22;23172;53.550;9.964;2022-07-06T04:09:13;21.60;54.50
37285;DHT22;23172;53.550;9.964;2022-07-06T04:14:15;21.50;54.80
37285;DHT22;23172;53.550;9.964;2022-07-06T04:19:17;21.50;55.10
37285;DHT22;23172;53.550;9.964;2022-07-06T04:24:20;21.50;55.30
37285;DHT22;23172;53.550;9.964;2022-07-06T04:29:22;21.50;55.50
37285;DHT22;23172;53.550;9.964;2022-07-06T04:34:24;21.50;56.20
37285;DHT22;23172;53.550;9.964;2022-07-06T04:39:27;21.60;55.60
37285;DHT22;23172;53.550;9.964;2022-07-06T04:44:31;21.60;55.60
37285;DHT22;23172;53.550;9.964;2022-07-06T04:49:33;21.60;55.70
37285;DHT22;23172;53.550;9.964;2022-07-06T04:54:36;21.60;55.80
37285;DHT22;23172;53.550;9.964;2022-07-06T04:59:38;21.60;56.40
37285;DHT22;23172;53.550;9.964;2022-07-06T05:04:40;21.60;55.70
37285;DHT22;23172;53.550;9.964;2022-07-06T05:09:43;21.60;55.90
37285;DHT22;23172;53.550;9.964;2022-07-06T05:14:45;21.60;55.70
37285;DHT22;23172;53.550;9.964;2022-07-06T05:19:46;21.60;55.50
37285;DHT22;23172;53.550;9.964;2022-07-06T05:24:50;21.50;55.50
37285;DHT22;23172;53.550;9.964;2022-07-06T05:29:51;21.50;55.60
37285;DHT22;23172;53.550;9.964;2022-07-06T05:34:53;21.40;55.60
37285;DHT22;23172;53.550;9.964;2022-07-06T05:39:56;21.30;55.70
37285;DHT22;23172;53.550;9.964;2022-07-06T05:44:58;21.30;55.70
37285;DHT22;23172;53.550;9.964;2022-07-06T05:50:00;21.40;55.70
37285;DHT22;23172;53.550;9.964;2022-07-06T05:55:15;21.40;55.60
37285;DHT22;23172;53.550;9.964;2022-07-06T06:00:17;21.50;55.60
37285;DHT22;23172;53.550;9.964;2022-07-06T06:05:19;21.50;55.60
37285;DHT22;23172;53.550;9.964;2022-07-06T06:10:23;21.50;55.50
37285;DHT22;23172;53.550;9.964;2022-07-06T06:15:25;21.50;55.40
37285;DHT22;23172;53.550;9.964;2022-07-06T06:20:27;21.50;55.20
37285;DHT22;23172;53.550;9.964;2022-07-06T06:25:31;21.60;55.30
37285;DHT22;23172;53.550;9.964;2022-07-06T06:30:34;21.50;55.50
37285;DHT22;23172;53.550;9.964;2022-07-06T06:35:38;21.40;55.80
37285;DHT22;23172;53.550;9.964;2022-07-06T06:40:42;21.40;55.80
37285;DHT22;23172;53.550;9.964;2022-07-06T06:45:43;21.40;55.60
37285;DHT22;23172;53.550;9.964;2022-07-06T06:50:47;21.40;55.20
37285;DHT22;23172;53.550;9.964;2022-07-06T06:55:50;21.50;55.10
37285;DHT22;23172;53.550;9.964;2022-07-06T07:00:51;21.50;54.90
37285;DHT22;23172;53.550;9.964;2022-07-06T07:05:53;21.70;54.70
37285;DHT22;23172;53.550;9.964;2022-07-06T07:10:56;21.80;54.30
37285;DHT22;23172;53.550;9.964;2022-07-06T07:15:59;21.80;54.10
37285;DHT22;23172;53.550;9.964;2022-07-06T07:21:01;21.90;53.90
37285;DHT22;23172;53.550;9.964;2022-07-06T07:26:04;21.90;53.80
37285;DHT22;23172;53.550;9.964;2022-07-06T07:31:07;22.00;53.50
37285;DHT22;23172;53.550;9.964;2022-07-06T07:36:09;22.00;53.10
37285;DHT22;23172;53.550;9.964;2022-07-06T07:41:12;21.90;53.40
37285;DHT22;23172;53.550;9.964;2022-07-06T07:46:14;21.80;54.70
37285;DHT22;23172;53.550;9.964;2022-07-06T07:51:16;21.70;54.70
37285;DHT22;23172;53.550;9.964;2022-07-06T07:56:20;21.70;55.00
37285;DHT22;23172;53.550;9.964;2022-07-06T08:01:22;21.70;55.40
37285;DHT22;23172;53.550;9.964;2022-07-06T08:06:24;21.60;55.70
37285;DHT22;23172;53.550;9.964;2022-07-06T08:11:27;21.60;55.90
37285;DHT22;23172;53.550;9.964;2022-07-06T08:16:29;21.60;55.90
37285;DHT22;23172;53.550;9.964;2022-07-06T08:21:31;21.60;55.90
37285;DHT22;23172;53.550;9.964;2022-07-06T08:26:34;21.60;55.90
37285;DHT22;23172;53.550;9.964;2022-07-06T08:31:36;21.60;55.80
37285;DHT22;23172;53.550;9.964;2022-07-06T08:36:38;21.50;56.10
37285;DHT22;23172;53.550;9.964;2022-07-06T08:41:42;21.40;57.20
37285;DHT22;23172;53.550;9.964;2022-07-06T08:46:49;21.30;57.10
37285;DHT22;23172;53.550;9.964;2022-07-06T08:51:52;21.30;57.20
37285;DHT22;23172;53.550;9.964;2022-07-06T08:56:57;21.30;57.20
37285;DHT22;23172;53.550;9.964;2022-07-06T09:02:00;21.40;57.00
37285;DHT22;23172;53.550;9.964;2022-07-06T09:07:02;21.40;57.00
37285;DHT22;23172;53.550;9.964;2022-07-06T09:12:10;21.50;56.90
37285;DHT22;23172;53.550;9.964;2022-07-06T09:17:13;21.60;56.90
37285;DHT22;23172;53.550;9.964;2022-07-06T09:22:26;21.70;56.80
37285;DHT22;23172;53.550;9.964;2022-07-06T09:27:29;21.80;57.00
37285;DHT22;23172;53.550;9.964;2022-07-06T09:32:38;22.00;56.80
37285;DHT22;23172;53.550;9.964;2022-07-06T09:37:40;22.30;56.50
37285;DHT22;23172;53.550;9.964;2022-07-06T09:42:43;23.00;55.90
37285;DHT22;23172;53.550;9.964;2022-07-06T09:47:46;23.40;54.40
37285;DHT22;23172;53.550;9.964;2022-07-06T09:52:53;23.30;53.60
37285;DHT22;23172;53.550;9.964;2022-07-06T09:57:57;23.20;53.20
37285;DHT22;23172;53.550;9.964;2022-07-06T10:03:00;23.10;53.20
37285;DHT22;23172;53.550;9.964;2022-07-06T10:08:02;23.00;53.10
37285;DHT22;23172;53.550;9.964;2022-07-06T10:13:08;23.00;53.00
37285;DHT22;23172;53.550;9.964;2022-07-06T10:18:10;23.10;53.10
37285;DHT22;23172;53.550;9.964;2022-07-06T10:23:12;23.20;53.10
37285;DHT22;23172;53.550;9.964;2022-07-06T10:28:17;23.00;53.10
37285;DHT22;23172;53.550;9.964;2022-07-06T10:33:21;22.90;53.30
37285;DHT22;23172;53.550;9.964;2022-07-06T10:38:31;22.80;53.00
37285;DHT22;23172;53.550;9.964;2022-07-06T10:43:38;22.50;53.10
37285;DHT22;23172;53.550;9.964;2022-07-06T10:48:41;22.20;53.70
37285;DHT22;23172;53.550;9.964;2022-07-06T10:53:43;22.10;53.90
37285;DHT22;23172;53.550;9.964;2022-07-06T10:58:49;22.00;54.20
37285;DHT22;23172;53.550;9.964;2022-07-06T11:04:06;22.00;54.40
37285;DHT22;23172;53.550;9.964;2022-07-06T11:09:09;22.00;54.30
37285;DHT22;23172;53.550;9.964;2022-07-06T11:14:13;22.00;54.60
37285;DHT22;23172;53.550;9.964;2022-07-06T11:19:16;22.00;54.60
37285;DHT22;23172;53.550;9.964;2022-07-06T11:24:22;22.00;54.60
37285;DHT22;23172;53.550;9.964;2022-07-06T11:29:27;22.10;54.60
37285;DHT22;23172;53.550;9.964;2022-07-06T11:34:30;22.20;54.70
37285;DHT22;23172;53.550;9.964;2022-07-06T11:39:34;22.60;54.40
37285;DHT22;23172;53.550;9.964;2022-07-06T11:44:38;22.80;54.10
37285;DHT22;23172;53.550;9.964;2022-07-06T11:49:41;22.80;54.10
37285;DHT22;23172;53.550;9.964;2022-07-06T11:54:43;22.80;54.10
37285;DHT22;23172;53.550;9.964;2022-07-06T11:59:46;22.80;54.00
37285;DHT22;23172;53.550;9.964;2022-07-06T12:04:53;22.90;54.00
37285;DHT22;23172;53.550;9.964;2022-07-06T12:09:55;23.20;53.30
37285;DHT22;23172;53.550;9.964;2022-07-06T12:14:58;23.50;52.00
37285;DHT22;23172;53.550;9.964;2022-07-06T12:20:01;23.80;51.20
37285;DHT22;23172;53.550;9.964;2022-07-06T12:25:03;24.10;50.00
37285;DHT22;23172;53.550;9.964;2022-07-06T12:30:11;24.30;49.40
37285;DHT22;23172;53.550;9.964;2022-07-06T12:35:13;24.40;48.50
37285;DHT22;23172;53.550;9.964;2022-07-06T12:40:15;24.50;47.20
37285;DHT22;23172;53.550;9.964;2022-07-06T12:45:18;24.50;46.40
37285;DHT22;23172;53.550;9.964;2022-07-06T12:50:20;24.50;46.10
37285;DHT22;23172;53.550;9.964;2022-07-06T12:55:31;24.60;46.10
37285;DHT22;23172;53.550;9.964;2022-07-06T13:00:45;24.70;45.70
37285;DHT22;23172;53.550;9.964;2022-07-06T13:05:49;24.60;45.30
37285;DHT22;23172;53.550;9.964;2022-07-06T13:10:51;24.80;45.20
37285;DHT22;23172;53.550;9.964;2022-07-06T13:15:54;25.00;44.60
37285;DHT22;23172;53.550;9.964;2022-07-06T13:20:56;24.90;44.10
37285;DHT22;23172;53.550;9.964;2022-07-06T13:25:58;25.00;44.00
37285;DHT22;23172;53.550;9.964;2022-07-06T13:31:01;25.20;42.80
37285;DHT22;23172;53.550;9.964;2022-07-06T13:36:03;25.30;42.60
37285;DHT22;23172;53.550;9.964;2022-07-06T13:41:05;25.40;42.60
37285;DHT22;23172;53.550;9.964;2022-07-06T13:46:08;25.40;42.50
37285;DHT22;23172;53.550;9.964;2022-07-06T13:51:11;25.30;42.40
37285;DHT22;23172;53.550;9.964;2022-07-06T13:56:13;25.40;41.80
37285;DHT22;23172;53.550;9.964;2022-07-06T14:01:16;25.40;41.10
37285;DHT22;23172;53.550;9.964;2022-07-06T14:06:19;25.50;40.80
37285;DHT22;23172;53.550;9.964;2022-07-06T14:11:21;25.50;40.60
37285;DHT22;23172;53.550;9.964;2022-07-06T14:16:24;25.60;40.40
37285;DHT22;23172;53.550;9.964;2022-07-06T14:21:26;25.80;39.90
37285;DHT22;23172;53.550;9.964;2022-07-06T14:26:28;25.80;39.30
37285;DHT22;23172;53.550;9.964;2022-07-06T14:31:31;25.90;39.30
37285;DHT22;23172;53.550;9.964;2022-07-06T14:36:33;25.90;38.90
37285;DHT22;23172;53.550;9.964;2022-07-06T14:41:35;25.80;38.70
37285;DHT22;23172;53.550;9.964;2022-07-06T14:46:38;25.60;38.60
37285;DHT22;23172;53.550;9.964;2022-07-06T14:51:40;25.50;38.60
37285;DHT22;23172;53.550;9.964;2022-07-06T14:56:42;25.30;38.60
37285;DHT22;23172;53.550;9.964;2022-07-06T15:01:50;25.20;38.90
37285;DHT22;23172;53.550;9.964;2022-07-06T15:06:52;25.30;38.80
37285;DHT22;23172;53.550;9.964;2022-07-06T15:11:54;25.20;39.00
37285;DHT22;23172;53.550;9.964;2022-07-06T15:16:57;25.10;38.90
37285;DHT22;23172;53.550;9.964;2022-07-06T15:21:59;25.10;38.60
37285;DHT22;23172;53.550;9.964;2022-07-06T15:27:02;25.00;38.90
37285;DHT22;23172;53.550;9.964;2022-07-06T15:32:06;24.90;39.10
37285;DHT22;23172;53.550;9.964;2022-07-06T15:37:08;24.80;39.40
37285;DHT22;23172;53.550;9.964;2022-07-06T15:42:10;24.70;39.80
37285;DHT22;23172;53.550;9.964;2022-07-06T15:47:13;24.60;40.20
37285;DHT22;23172;53.550;9.964;2022-07-06T15:52:15;24.50;40.40
37285;DHT22;23172;53.550;9.964;2022-07-06T15:57:17;24.50;40.70
37285;DHT22;23172;53.550;9.964;2022-07-06T16:02:20;24.50;40.90
37285;DHT22;23172;53.550;9.964;2022-07-06T16:07:24;24.60;40.80
37285;DHT22;23172;53.550;9.964;2022-07-06T16:12:26;24.70;40.90
37285;DHT22;23172;53.550;9.964;2022-07-06T16:17:29;24.80;40.90
37285;DHT22;23172;53.550;9.964;2022-07-06T16:22:31;24.80;40.90
37285;DHT22;23172;53.550;9.964;2022-07-06T16:27:34;24.80;40.70
37285;DHT22;23172;53.550;9.964;2022-07-06T16:32:38;24.80;40.50
37285;DHT22;23172;53.550;9.964;2022-07-06T16:37:39;24.80;40.20
37285;DHT22;23172;53.550;9.964;2022-07-06T16:42:41;24.80;40.30
37285;DHT22;23172;53.550;9.964;2022-07-06T16:47:44;24.70;40.20
37285;DHT22;23172;53.550;9.964;2022-07-06T16:52:46;24.70;40.00
37285;DHT22;23172;53.550;9.964;2022-07-06T16:57:48;24.60;40.00
37285;DHT22;23172;53.550;9.964;2022-07-06T17:02:52;24.60;40.00
37285;DHT22;23172;53.550;9.964;2022-07-06T17:07:56;24.60;40.00
37285;DHT22;23172;53.550;9.964;2022-07-06T17:12:58;24.60;40.10
37285;DHT22;23172;53.550;9.964;2022-07-06T17:18:02;24.60;40.20
37285;DHT22;23172;53.550;9.964;2022-07-06T17:23:04;24.60;40.50
37285;DHT22;23172;53.550;9.964;2022-07-06T17:28:06;24.60;40.40
37285;DHT22;23172;53.550;9.964;2022-07-06T17:33:09;24.60;40.50
37285;DHT22;23172;53.550;9.964;2022-07-06T17:38:11;24.60;40.40
37285;DHT22;23172;53.550;9.964;2022-07-06T17:43:14;24.70;40.50
37285;DHT22;23172;53.550;9.964;2022-07-06T17:48:17;24.70;40.60
37285;DHT22;23172;53.550;9.964;2022-07-06T17:53:19;24.70;40.70
37285;DHT22;23172;53.550;9.964;2022-07-06T17:58:21;24.60;40.80
37285;DHT22;23172;53.550;9.964;2022-07-06T18:03:24;24.60;41.00
37285;DHT22;23172;53.550;9.964;2022-07-06T18:08:26;24.70;41.20
37285;DHT22;23172;53.550;9.964;2022-07-06T18:13:28;24.60;41.30
37285;DHT22;23172;53.550;9.964;2022-07-06T18:18:32;24.60;42.20
37285;DHT22;23172;53.550;9.964;2022-07-06T18:23:34;24.40;41.80
37285;DHT22;23172;53.550;9.964;2022-07-06T18:28:36;24.30;42.70
37285;DHT22;23172;53.550;9.964;2022-07-06T18:33:39;24.20;42.40
37285;DHT22;23172;53.550;9.964;2022-07-06T18:38:41;24.20;42.60
37285;DHT22;23172;53.550;9.964;2022-07-06T18:43:43;24.20;42.70
37285;DHT22;23172;53.550;9.964;2022-07-06T18:48:46;24.20;42.80
37285;DHT22;23172;53.550;9.964;2022-07-06T18:53:48;24.20;43.10
37285;DHT22;23172;53.550;9.964;2022-07-06T18:58:50;24.20;43.20
37285;DHT22;23172;53.550;9.964;2022-07-06T19:03:53;24.10;43.40
37285;DHT22;23172;53.550;9.964;2022-07-06T19:08:56;24.10;43.70
37285;DHT22;23172;53.550;9.964;2022-07-06T19:13:57;24.00;44.00
37285;DHT22;23172;53.550;9.964;2022-07-06T19:19:00;23.90;44.20
37285;DHT22;23172;53.550;9.964;2022-07-06T19:24:03;23.90;44.50
37285;DHT22;23172;53.550;9.964;2022-07-06T19:29:04;23.90;44.80
37285;DHT22;23172;53.550;9.964;2022-07-06T19:34:08;23.80;45.00
37285;DHT22;23172;53.550;9.964;2022-07-06T19:39:09;23.80;45.30
37285;DHT22;23172;53.550;9.964;2022-07-06T19:44:11;23.70;45.60
37285;DHT22;23172;53.550;9.964;2022-07-06T19:49:14;23.70;46.10
37285;DHT22;23172;53.550;9.964;2022-07-06T19:54:16;23.70;47.20
37285;DHT22;23172;53.550;9.964;2022-07-06T19:59:18;23.50;48.50
37285;DHT22;23172;53.550;9.964;2022-07-06T20:04:21;23.30;49.60
37285;DHT22;23172;53.550;9.964;2022-07-06T20:09:23;23.20;50.60
37285;DHT22;23172;53.550;9.964;2022-07-06T20:14:25;23.00;51.50
37285;DHT22;23172;53.550;9.964;2022-07-06T20:19:28;22.80;52.10
37285;DHT22;23172;53.550;9.964;2022-07-06T20:24:32;22.60;52.70
37285;DHT22;23172;53.550;9.964;2022-07-06T20:29:34;22.50;53.30
37285;DHT22;23172;53.550;9.964;2022-07-06T20:34:37;22.40;54.00
37285;DHT22;23172;53.550;9.964;2022-07-06T20:39:39;22.30;54.50
37285;DHT22;23172;53.550;9.964;2022-07-06T20:44:41;22.20;54.90
37285;DHT22;23172;53.550;9.964;2022-07-06T20:49:46;22.10;55.20
37285;DHT22;23172;53.550;9.964;2022-07-06T20:54:48;22.20;55.50
37285;DHT22;23172;53.550;9.964;2022-07-06T20:59:49;22.20;55.60
37285;DHT22;23172;53.550;9.964;2022-07-06T21:04:52;22.10;55.50
37285;DHT22;23172;53.550;9.964;2022-07-06T21:09:55;22.10;55.60
37285;DHT22;23172;53.550;9.964;2022-07-06T21:14:57;22.00;55.70
37285;DHT22;23172;53.550;9.964;2022-07-06T21:20:00;22.00;55.80
37285;DHT22;23172;53.550;9.964;2022-07-06T21:25:02;21.90;55.90
37285;DHT22;23172;53.550;9.964;2022-07-06T21:30:05;21.90;56.00
37285;DHT22;23172;53.550;9.964;2022-07-06T21:35:08;21.80;56.20
37285;DHT22;23172;53.550;9.964;2022-07-06T21:40:11;21.80;56.40
37285;DHT22;23172;53.550;9.964;2022-07-06T21:45:12;21.80;56.40
37285;DHT22;23172;53.550;9.964;2022-07-06T21:50:16;21.70;56.40
37285;DHT22;23172;53.550;9.964;2022-07-06T21:55:18;21.60;56.70
37285;DHT22;23172;53.550;9.964;2022-07-06T22:00:19;21.50;57.00
37285;DHT22;23172;53.550;9.964;2022-07-06T22:05:23;21.50;57.20
37285;DHT22;23172;53.550;9.964;2022-07-06T22:10:25;21.50;57.50
37285;DHT22;23172;53.550;9.964;2022-07-06T22:15:30;21.50;57.80
37285;DHT22;23172;53.550;9.964;2022-07-06T22:20:33;21.40;58.10
37285;DHT22;23172;53.550;9.964;2022-07-06T22:25:35;21.30;58.50
37285;DHT22;23172;53.550;9.964;2022-07-06T22:30:37;21.20;59.00
37285;DHT22;23172;53.550;9.964;2022-07-06T22:35:40;21.20;59.30
37285;DHT22;23172;53.550;9.964;2022-07-06T22:40:42;21.20;59.60
37285;DHT22;23172;53.550;9.964;2022-07-06T22:46:03;21.20;60.00
37285;DHT22;23172;53.550;9.964;2022-07-06T22:51:07;21.20;60.30
37285;DHT22;23172;53.550;9.964;2022-07-06T22:56:09;21.20;61.00
37285;DHT22;23172;53.550;9.964;2022-07-06T23:01:11;21.20;61.50
37285;DHT22;23172;53.550;9.964;2022-07-06T23:06:15;21.20;61.90
37285;DHT22;23172;53.550;9.964;2022-07-06T23:11:18;21.10;62.50
37285;DHT22;23172;53.550;9.964;2022-07-06T23:16:20;21.00;63.40
37285;DHT22;23172;53.550;9.964;2022-07-06T23:21:24;20.90;63.70
37285;DHT22;23172;53.550;9.964;2022-07-06T23:26:26;21.00;70.80
37285;DHT22;23172;53.550;9.964;2022-07-06T23:31:28;20.90;70.80
37285;DHT22;23172;53.550;9.964;2022-07-06T23:36:31;20.90;77.70
37285;DHT22;23172;53.550;9.964;2022-07-06T23:41:33;20.90;65.40
37285;DHT22;23172;53.550;9.964;2022-07-06T23:46:35;20.90;65.60
37285;DHT22;23172;53.550;9.964;2022-07-06T23:51:38;20.90;65.80
37285;DHT22;23172;53.550;9.964;2022-07-06T23:56:40;21.00;66.10
